Bookmark and Share
Track history (hours):
 

An Xiu Shan

Last reported at 2014-Apr-23 12:18 UTC. Time now 2014-Apr-24 01:53 UTC.
Position N 28°59' E 122°32'.

Length 199 m; draft 11.6 m.

Type: Cargo ship. MMSI: 413195000.

NotesDate/timePositionNaut miles runAvg speedWind from/ knotsBaromVisibWave heightAir tempDewpointWater temp
2014-Apr-23 12:18N 28°59' E 122°32'911.9
2014-Apr-23 11:33N 29°07' E 122°35'1211.6
2014-Apr-23 10:33N 29°18' E 122°39'1211.2
2014-Apr-23 09:29N 29°30' E 122°42'1511.0
2014-Apr-23 08:06N 29°43' E 122°50'711.2
2014-Apr-23 07:30N 29°49' E 122°53'1111.2
2014-Apr-23 06:33N 29°59' E 122°57'3611.4
2014-Apr-23 03:26N 30°35' E 123°02'1412.0
2014-Apr-23 02:16N 30°48' E 122°58'1211.7
2014-Apr-23 01:17N 30°60' E 122°58'912.2
2014-Apr-23 00:31N 31°09' E 122°56'1111.3
2014-Apr-22 23:33N 31°20' E 122°55'1211.3
2014-Apr-22 22:28N 31°32' E 122°54'1011.0
2014-Apr-22 21:33N 31°42' E 122°54'34011.9
2014-Apr-21 17:07N 37°22' E 122°48'711.3
2014-Apr-21 16:32N 37°28' E 122°45'1110.8
2014-Apr-21 15:33N 37°35' E 122°35'10 9.4
2014-Apr-21 14:31N 37°42' E 122°27'1111.1
2014-Apr-21 13:33N 37°48' E 122°16'1210.7
2014-Apr-21 12:28N 37°56' E 122°06'3411.8
2014-Apr-21 09:33N 38°16' E 121°29'1111.2
2014-Apr-21 08:33N 38°22' E 121°18'82 9.7
2014-Apr-21 00:04N 39°43' E 121°07'  
2014-Apr-16 00:06N 38°25' E 121°19'1013.1
2014-Apr-15 23:19N 38°20' E 121°30'1012.8
2014-Apr-15 22:32N 38°14' E 121°40'1713.2
2014-Apr-15 21:15N 38°04' E 121°58'913.1
2014-Apr-15 20:33N 37°59' E 122°08'1313.0
2014-Apr-15 19:33N 37°52' E 122°22'1212.6
2014-Apr-15 18:33N 37°45' E 122°35'1211.8
2014-Apr-15 17:30N 37°36' E 122°46'1111.7
2014-Apr-15 16:32N 37°26' E 122°53'1111.0
2014-Apr-15 15:33N 37°16' E 122°54'1211.5
2014-Apr-15 14:30N 37°04' E 122°55'12 6.2
2014-Apr-15 12:34N 36°52' E 122°53'1313.0
2014-Apr-15 11:33N 36°39' E 122°55'17313.3
2014-Apr-14 22:33N 33°46' E 122°54'1212.2
2014-Apr-14 21:33N 33°33' E 122°54'1212.0
2014-Apr-14 20:34N 33°22' E 122°54'8113.5
2014-Apr-14 14:33N 32°00' E 122°56'1514.3
2014-Apr-14 13:32N 31°46' E 122°56'64 9.2
2014-Apr-14 06:33N 31°17' E 121°48'1212.5
2014-Apr-14 05:33N 31°23' E 121°35'57 8.1
2014-Apr-13 22:33N 32°00' E 120°45'0 0.1
2014-Apr-13 21:32N 32°00' E 120°45'0 0.2
2014-Apr-13 20:26N 32°00' E 120°45'0 0.1
2014-Apr-13 19:29N 32°00' E 120°45'0 0.1
2014-Apr-13 18:33N 32°00' E 120°45'0 0.0
2014-Apr-13 17:27N 32°00' E 120°45'0 0.1
2014-Apr-13 16:32N 32°00' E 120°45'0 0.2
2014-Apr-13 15:33N 32°00' E 120°45'0 0.0
2014-Apr-13 14:32N 32°00' E 120°45'0 0.0
2014-Apr-13 13:33N 32°00' E 120°45'0 0.0
2014-Apr-13 12:33N 32°00' E 120°45'  

Dump ship's entire track history

sailing weather and tide predictions

An Xiu Shan — BRQV — position and weather